Time;durP1;ratioP1;P1;durP2;ratioP2;P2;SDS_P1;SDS_P2;PMS_P1;PMS_P2;Temp;Humidity;BMP_temperature;BMP_pressure;BME280_temperature;BME280_humidity;BME280_pressure;Samples;Min_cycle;Max_cycle;Signal;HPM_P1;HPM_P2
2023/01/02 00:01:43;;;;;;;9.00;1.25;;;21.40;25.00;;;;;;6243382;28;20040;-73
2023/01/02 00:04:44;;;;;;;12.25;1.55;;;21.30;25.20;;;;;;6239404;28;20116;-73
2023/01/02 00:07:45;;;;;;;5.75;1.10;;;21.30;24.90;;;;;;6243779;28;20047;-73
2023/01/02 00:10:46;;;;;;;7.85;0.85;;;21.30;24.90;;;;;;6244083;28;20366;-72
2023/01/02 00:13:46;;;;;;;12.82;1.23;;;21.30;24.90;;;;;;6242613;28;20033;-73
2023/01/02 00:16:47;;;;;;;10.38;1.45;;;21.30;24.90;;;;;;6244778;28;20041;-73
2023/01/02 00:19:48;;;;;;;7.05;1.45;;;21.30;24.90;;;;;;6244806;28;20466;-73
2023/01/02 00:22:49;;;;;;;4.38;1.23;;;21.30;24.80;;;;;;6245342;28;20466;-73
2023/01/02 00:25:50;;;;;;;2.42;0.93;;;21.30;24.80;;;;;;6245423;28;20053;-73
2023/01/02 00:28:50;;;;;;;6.45;1.30;;;21.30;24.80;;;;;;6244369;28;20045;-73
2023/01/02 00:31:51;;;;;;;3.55;1.25;;;21.30;24.60;;;;;;6242217;28;20116;-73
2023/01/02 00:34:52;;;;;;;3.72;0.98;;;21.20;24.70;;;;;;6273108;28;20489;-73
2023/01/02 00:37:53;;;;;;;9.63;1.13;;;21.30;24.70;;;;;;6244186;28;20120;-73
2023/01/02 00:40:54;;;;;;;18.48;1.27;;;21.30;24.80;;;;;;6243269;28;20038;-73
2023/01/02 00:43:55;;;;;;;7.07;0.82;;;21.20;24.80;;;;;;6272525;28;20037;-72
2023/01/02 00:46:55;;;;;;;7.18;1.13;;;21.20;24.90;;;;;;6227404;28;20034;-73
2023/01/02 00:49:56;;;;;;;4.68;0.65;;;21.20;24.80;;;;;;6271274;28;20041;-73
2023/01/02 00:52:57;;;;;;;7.40;1.35;;;21.20;25.00;;;;;;6242454;28;20121;-72
2023/01/02 00:55:58;;;;;;;8.65;1.33;;;21.20;25.10;;;;;;6241755;28;20056;-72
2023/01/02 00:58:59;;;;;;;11.13;1.45;;;21.10;24.80;;;;;;6223044;28;20076;-72
2023/01/02 01:01:59;;;;;;;7.68;1.30;;;21.10;24.90;;;;;;6244262;28;20028;-72
2023/01/02 01:05:00;;;;;;;18.15;1.50;;;21.10;24.80;;;;;;6244860;28;20182;-72
2023/01/02 01:08:01;;;;;;;9.18;1.30;;;21.10;25.00;;;;;;6276408;28;20079;-72
2023/01/02 01:11:11;;;;;;;4.82;0.88;;;21.10;25.00;;;;;;6240609;28;20050;-72
2023/01/02 01:14:12;;;;;;;12.07;1.60;;;21.10;25.20;;;;;;6243310;28;20116;-73
2023/01/02 01:17:13;;;;;;;10.20;1.15;;;21.10;25.20;;;;;;6227294;28;20048;-72
2023/01/02 01:20:14;;;;;;;8.07;1.67;;;21.10;25.20;;;;;;6244838;28;20090;-73
2023/01/02 01:23:14;;;;;;;4.78;0.90;;;21.00;25.20;;;;;;6220883;28;20080;-72
2023/01/02 01:26:15;;;;;;;7.57;1.35;;;21.00;25.10;;;;;;6219356;28;20092;-72
2023/01/02 01:29:16;;;;;;;7.32;1.00;;;21.10;25.20;;;;;;6219750;28;20379;-72
2023/01/02 01:32:17;;;;;;;16.58;2.08;;;21.00;25.10;;;;;;6208719;28;20057;-72
2023/01/02 01:35:18;;;;;;;5.07;0.93;;;21.00;25.10;;;;;;6233369;28;20052;-73
2023/01/02 01:38:19;;;;;;;4.97;1.23;;;21.00;25.20;;;;;;6247119;28;20063;-72
2023/01/02 01:41:21;;;;;;;7.03;1.33;;;21.00;25.20;;;;;;6248245;28;20370;-73
2023/01/02 01:44:43;;;;;;;6.65;1.52;;;21.00;25.20;;;;;;6246595;28;20029;-73
2023/01/02 01:47:48;;;;;;;5.75;1.25;;;21.00;25.20;;;;;;6242131;28;20040;-73
2023/01/02 01:50:49;;;;;;;5.65;1.23;;;21.00;25.20;;;;;;6218288;28;20116;-74
2023/01/02 01:53:53;;;;;;;7.22;0.85;;;21.00;25.20;;;;;;6204303;28;20034;-71
2023/01/02 01:57:01;;;;;;;6.78;1.35;;;21.00;25.20;;;;;;6221257;28;20162;-73
2023/01/02 02:00:04;;;;;;;12.52;1.15;;;21.00;25.20;;;;;;6244249;28;20116;-72
2023/01/02 02:03:11;;;;;;;5.13;1.02;;;21.00;25.00;;;;;;6243736;28;20363;-73
2023/01/02 02:06:12;;;;;;;6.82;1.08;;;21.00;25.10;;;;;;6258969;28;20064;-72
2023/01/02 02:09:21;;;;;;;5.32;1.58;;;21.00;25.00;;;;;;6245402;28;20041;-74
2023/01/02 02:12:22;;;;;;;20.65;1.55;;;21.00;25.00;;;;;;6244481;28;20088;-72
2023/01/02 02:16:04;;;;;;;4.57;1.15;;;21.00;25.10;;;;;;6246416;28;20046;-72
2023/01/02 02:19:04;;;;;;;2.13;0.90;;;21.00;25.10;;;;;;6164626;28;20065;-73
2023/01/02 02:22:36;;;;;;;13.63;1.45;;;21.00;25.20;;;;;;6170976;28;20473;-72
2023/01/02 02:26:06;;;;;;;7.20;1.30;;;21.00;25.10;;;;;;6150685;28;20054;-73
2023/01/02 02:29:28;;;;;;;7.53;1.10;;;21.00;25.00;;;;;;6170327;28;20034;-73
2023/01/02 02:32:56;;;;;;;7.18;1.25;;;21.00;25.10;;;;;;6155324;28;20039;-73
2023/01/02 02:36:05;;;;;;;9.45;1.73;;;21.00;25.20;;;;;;6184140;28;20042;-73
2023/01/02 02:39:27;;;;;;;4.95;1.50;;;21.00;25.10;;;;;;6170359;28;20046;-73
2023/01/02 02:43:02;;;;;;;8.57;1.10;;;21.00;25.10;;;;;;6152636;28;20038;-73
2023/01/02 02:46:11;;;;;;;4.57;1.15;;;21.00;25.10;;;;;;6168415;28;20546;-73
2023/01/02 02:49:48;;;;;;;5.78;1.15;;;21.00;25.10;;;;;;6130065;28;20036;-73
2023/01/02 02:52:57;;;;;;;4.53;1.13;;;21.00;25.10;;;;;;6166538;28;20042;-72
2023/01/02 02:56:02;;;;;;;5.80;1.20;;;21.10;25.20;;;;;;6175511;28;20177;-72
2023/01/02 02:59:03;;;;;;;9.32;1.33;;;21.00;25.00;;;;;;6161260;28;20041;-72
2023/01/02 03:02:04;;;;;;;4.32;1.30;;;21.00;25.00;;;;;;6166679;28;20046;-72
2023/01/02 03:05:10;;;;;;;3.45;1.15;;;21.00;25.10;;;;;;6163104;28;20057;-73
2023/01/02 03:08:31;;;;;;;7.10;1.35;;;21.00;25.30;;;;;;6182677;28;20047;-72
2023/01/02 03:12:07;;;;;;;5.55;1.17;;;21.00;25.20;;;;;;6197198;28;20026;-72
2023/01/02 03:15:20;;;;;;;4.80;0.95;;;21.00;25.40;;;;;;6176814;28;20537;-73
2023/01/02 03:18:29;;;;;;;17.42;1.70;;;20.90;25.40;;;;;;6177581;28;20038;-72
2023/01/02 03:21:42;;;;;;;10.57;1.23;;;20.90;25.40;;;;;;6181828;28;20038;-73
2023/01/02 03:24:46;;;;;;;3.70;1.10;;;20.90;25.40;;;;;;6252958;28;20514;-73
2023/01/02 03:27:50;;;;;;;10.15;1.58;;;20.90;25.40;;;;;;6220463;28;20045;-73
2023/01/02 03:30:55;;;;;;;6.45;1.10;;;20.90;25.50;;;;;;6237497;28;20069;-74
2023/01/02 03:34:21;;;;;;;5.90;1.45;;;20.90;25.60;;;;;;6204613;28;20031;-72
2023/01/02 03:37:27;;;;;;;8.05;1.40;;;20.90;25.60;;;;;;6225213;28;20034;-74
2023/01/02 03:40:34;;;;;;;11.05;1.60;;;20.90;25.60;;;;;;6239842;28;20378;-72
2023/01/02 03:43:39;;;;;;;3.67;0.88;;;20.90;25.80;;;;;;6242134;28;20049;-73
2023/01/02 03:46:49;;;;;;;4.70;1.02;;;20.90;25.80;;;;;;6269656;28;20029;-72
2023/01/02 03:49:53;;;;;;;10.23;1.05;;;20.90;25.90;;;;;;6241417;28;20084;-72
2023/01/02 03:52:54;;;;;;;10.07;1.85;;;20.90;25.90;;;;;;6243607;28;20045;-72
2023/01/02 03:56:16;;;;;;;6.38;1.00;;;20.90;26.00;;;;;;6242399;28;20034;-72
2023/01/02 03:59:40;;;;;;;5.38;1.08;;;20.90;26.00;;;;;;6266118;28;20109;-72
2023/01/02 04:02:55;;;;;;;8.90;1.23;;;20.90;26.00;;;;;;6222225;28;20052;-72
2023/01/02 04:06:03;;;;;;;4.32;1.00;;;20.90;26.00;;;;;;6252624;28;20128;-73
2023/01/02 04:09:12;;;;;;;13.93;1.58;;;20.90;26.00;;;;;;6244831;28;20060;-72
2023/01/02 04:12:16;;;;;;;13.60;1.63;;;21.00;26.10;;;;;;6244489;28;20033;-72
2023/01/02 04:15:22;;;;;;;5.68;0.93;;;21.00;26.10;;;;;;6259715;28;20057;-73
2023/01/02 04:18:30;;;;;;;7.57;1.10;;;21.00;26.10;;;;;;6235161;28;20375;-72
2023/01/02 04:21:35;;;;;;;14.75;1.15;;;21.00;26.20;;;;;;6217387;28;20026;-73
2023/01/02 04:24:42;;;;;;;5.63;1.00;;;21.00;26.20;;;;;;6220789;28;20034;-72
2023/01/02 04:28:06;;;;;;;8.18;1.02;;;21.00;26.20;;;;;;6218837;28;20033;-73
2023/01/02 04:31:14;;;;;;;5.80;1.08;;;21.00;26.30;;;;;;6217992;28;20064;-73
2023/01/02 04:34:17;;;;;;;7.35;1.00;;;21.00;26.30;;;;;;6200211;28;20041;-72
2023/01/02 04:37:32;;;;;;;12.05;1.40;;;21.00;26.30;;;;;;6194403;28;20054;-72
2023/01/02 04:40:37;;;;;;;5.97;0.88;;;21.00;26.40;;;;;;6232489;28;20470;-73
2023/01/02 04:43:37;;;;;;;5.60;1.15;;;21.10;26.40;;;;;;6241204;28;20413;-73
2023/01/02 04:46:38;;;;;;;5.65;1.20;;;21.10;26.50;;;;;;6275953;28;20037;-73
2023/01/02 04:49:39;;;;;;;11.30;1.10;;;21.10;26.50;;;;;;6277179;28;20125;-73
2023/01/02 04:52:40;;;;;;;7.80;1.30;;;21.10;26.60;;;;;;6276998;28;20044;-72
2023/01/02 04:55:41;;;;;;;6.55;1.52;;;21.10;26.60;;;;;;6239607;28;20136;-73
2023/01/02 04:58:43;;;;;;;10.80;1.88;;;21.10;26.70;;;;;;6245793;28;20166;-73
2023/01/02 05:01:44;;;;;;;2.22;0.80;;;21.10;26.70;;;;;;6244243;28;20467;-74
2023/01/02 05:04:45;;;;;;;8.43;1.27;;;21.20;26.70;;;;;;6219782;28;20048;-74
2023/01/02 05:07:45;;;;;;;6.45;1.58;;;21.20;26.70;;;;;;6205901;28;20070;-73
2023/01/02 05:10:46;;;;;;;5.10;1.17;;;21.20;26.80;;;;;;6246424;28;20091;-71
2023/01/02 05:13:48;;;;;;;10.63;1.25;;;21.20;26.80;;;;;;6243751;28;20044;-72
2023/01/02 05:16:49;;;;;;;10.73;1.38;;;21.20;26.90;;;;;;6241195;28;20367;-72
2023/01/02 05:19:50;;;;;;;12.55;1.15;;;21.20;26.90;;;;;;6252608;28;20028;-73
2023/01/02 05:26:11;;;;;;;8.23;1.27;;;21.20;27.10;;;;;;6242980;28;20355;-72
2023/01/02 05:29:12;;;;;;;7.18;1.10;;;21.20;27.10;;;;;;6241516;28;20042;-73
2023/01/02 05:32:13;;;;;;;18.23;2.72;;;21.20;27.20;;;;;;6272175;28;20465;-73
2023/01/02 05:35:14;;;;;;;2.10;0.80;;;21.20;27.20;;;;;;6233098;28;20050;-72
2023/01/02 05:38:15;;;;;;;7.25;0.85;;;21.20;27.20;;;;;;6219253;28;20413;-72
2023/01/02 05:41:16;;;;;;;6.72;1.02;;;21.20;27.20;;;;;;6252123;28;20076;-73
2023/01/02 05:44:17;;;;;;;10.00;1.38;;;21.20;27.20;;;;;;6259811;28;20075;-74
2023/01/02 05:47:18;;;;;;;8.48;1.33;;;21.20;27.30;;;;;;6243461;28;20470;-72
2023/01/02 05:50:19;;;;;;;9.10;1.33;;;21.20;27.30;;;;;;6243426;28;20133;-73
2023/01/02 05:53:20;;;;;;;5.78;1.00;;;21.20;27.30;;;;;;6242369;28;20455;-72
2023/01/02 05:56:21;;;;;;;8.55;1.20;;;21.20;27.40;;;;;;6236628;28;20073;-72
2023/01/02 05:59:22;;;;;;;7.78;1.00;;;21.20;27.40;;;;;;6218389;28;20490;-73
2023/01/02 06:02:22;;;;;;;8.75;1.40;;;21.20;27.40;;;;;;6237829;28;20041;-72
2023/01/02 06:05:23;;;;;;;7.40;1.30;;;21.30;27.40;;;;;;6251571;28;20419;-72
2023/01/02 06:08:24;;;;;;;6.30;0.90;;;21.20;27.30;;;;;;6243083;28;20033;-72
2023/01/02 06:11:26;;;;;;;6.40;1.00;;;21.30;27.40;;;;;;6242588;28;20375;-73
2023/01/02 06:14:27;;;;;;;7.10;1.17;;;21.30;27.40;;;;;;6243857;28;20048;-73
2023/01/02 06:17:27;;;;;;;10.07;1.50;;;21.30;27.40;;;;;;6257556;28;20434;-71
2023/01/02 06:20:28;;;;;;;6.65;0.93;;;21.30;27.40;;;;;;6242065;28;20045;-71
2023/01/02 06:23:30;;;;;;;6.45;1.10;;;21.30;27.40;;;;;;6244502;28;20061;-73
2023/01/02 06:26:31;;;;;;;5.50;1.00;;;21.30;27.50;;;;;;6260546;28;20037;-72
2023/01/02 06:29:32;;;;;;;6.70;1.65;;;21.30;27.40;;;;;;6246409;28;20084;-72
2023/01/02 06:32:33;;;;;;;7.28;1.08;;;21.30;27.50;;;;;;6271479;28;20046;-73
2023/01/02 06:35:33;;;;;;;15.00;1.38;;;21.30;27.60;;;;;;6252998;28;20041;-72
2023/01/02 06:38:35;;;;;;;11.70;1.50;;;21.30;27.70;;;;;;6236669;28;20112;-71
2023/01/02 06:41:35;;;;;;;10.82;1.52;;;21.30;27.70;;;;;;6239433;28;20046;-71
2023/01/02 06:44:36;;;;;;;7.53;1.25;;;21.30;27.70;;;;;;6246749;28;20102;-73
2023/01/02 06:47:37;;;;;;;14.02;1.38;;;21.30;27.80;;;;;;6244145;28;20514;-71
2023/01/02 06:50:38;;;;;;;11.35;1.30;;;21.20;27.80;;;;;;6238697;28;20351;-73
2023/01/02 06:53:40;;;;;;;13.80;1.10;;;21.20;27.90;;;;;;6238571;28;20157;-73
2023/01/02 06:56:41;;;;;;;14.10;1.30;;;21.20;27.90;;;;;;6262692;28;20045;-73
2023/01/02 06:59:42;;;;;;;7.50;1.00;;;21.20;28.00;;;;;;6237701;28;20041;-73
2023/01/02 07:02:43;;;;;;;11.02;1.17;;;21.20;28.00;;;;;;6248562;28;20478;-72
2023/01/02 07:05:44;;;;;;;10.20;1.20;;;21.20;28.10;;;;;;6263001;28;20037;-74
2023/01/02 07:08:45;;;;;;;7.80;1.15;;;21.20;28.00;;;;;;6263193;28;20037;-73
2023/01/02 07:11:46;;;;;;;9.02;1.25;;;21.30;28.10;;;;;;6245633;28;20026;-72
2023/01/02 07:14:47;;;;;;;7.00;0.88;;;21.30;28.10;;;;;;6245935;28;20455;-72
2023/01/02 07:17:48;;;;;;;9.57;1.00;;;21.30;28.10;;;;;;6245367;28;20041;-72
2023/01/02 07:20:55;;;;;;;5.03;1.10;;;21.30;28.20;;;;;;6245478;28;20033;-73
2023/01/02 07:23:55;;;;;;;6.50;1.13;;;21.30;28.20;;;;;;6226610;28;20037;-73
2023/01/02 07:26:56;;;;;;;6.45;1.48;;;21.30;28.10;;;;;;6243721;28;20034;-72
2023/01/02 07:29:57;;;;;;;7.50;1.27;;;21.40;28.20;;;;;;6220025;28;20049;-72
2023/01/02 07:32:58;;;;;;;4.28;0.90;;;21.40;28.20;;;;;;6229802;28;20145;-73
2023/01/02 07:36:05;;;;;;;5.72;1.00;;;21.40;28.20;;;;;;6203176;28;20085;-72
2023/01/02 07:39:06;;;;;;;6.35;1.15;;;21.40;28.20;;;;;;6231416;28;20072;-72
2023/01/02 07:42:07;;;;;;;4.07;0.98;;;21.40;28.20;;;;;;6246556;28;20061;-73
2023/01/02 07:45:08;;;;;;;4.10;0.80;;;21.40;28.30;;;;;;6218563;28;20043;-73
2023/01/02 07:48:09;;;;;;;10.55;1.60;;;21.40;28.30;;;;;;6216245;28;20045;-73
2023/01/02 07:51:10;;;;;;;9.65;1.40;;;21.40;28.40;;;;;;6253827;28;20048;-73
2023/01/02 07:54:11;;;;;;;7.70;1.00;;;21.40;28.40;;;;;;6203904;28;20092;-73
2023/01/02 07:57:12;;;;;;;6.40;1.17;;;21.40;28.50;;;;;;6232282;28;20574;-74
2023/01/02 08:00:14;;;;;;;3.53;0.52;;;21.40;28.50;;;;;;6197652;28;20061;-73
2023/01/02 08:03:15;;;;;;;13.02;1.55;;;21.40;28.50;;;;;;6214041;28;20029;-73
2023/01/02 08:06:17;;;;;;;6.68;0.93;;;21.40;28.50;;;;;;6215636;28;20053;-73
2023/01/02 08:09:19;;;;;;;9.05;1.27;;;21.50;28.50;;;;;;6217991;28;20096;-72
2023/01/02 08:12:19;;;;;;;3.53;0.63;;;21.50;28.50;;;;;;6217833;28;20125;-73
2023/01/02 08:15:20;;;;;;;21.65;1.45;;;21.50;28.50;;;;;;6206191;28;20062;-74
2023/01/02 08:18:21;;;;;;;6.05;0.95;;;21.60;28.50;;;;;;6212695;28;20072;-73
2023/01/02 08:21:24;;;;;;;5.50;0.98;;;21.60;28.50;;;;;;6216195;28;20030;-75
2023/01/02 08:24:25;;;;;;;4.13;1.00;;;21.70;28.50;;;;;;6215054;28;20116;-73
2023/01/02 08:27:26;;;;;;;8.07;0.77;;;21.80;28.40;;;;;;6213446;28;20064;-73
2023/01/02 08:30:27;;;;;;;3.22;0.63;;;21.80;28.40;;;;;;6199681;28;20383;-74
2023/01/02 08:33:27;;;;;;;5.78;0.85;;;21.90;28.40;;;;;;6214222;28;20037;-73
2023/01/02 08:36:28;;;;;;;2.63;0.73;;;21.90;28.40;;;;;;6212321;28;20069;-73
2023/01/02 08:39:29;;;;;;;5.18;0.60;;;21.90;28.40;;;;;;6207618;28;20029;-73
2023/01/02 08:42:30;;;;;;;3.50;0.57;;;22.00;28.40;;;;;;6205596;28;20061;-74
2023/01/02 08:45:31;;;;;;;4.35;0.80;;;22.00;28.30;;;;;;6215468;28;20061;-73
2023/01/02 08:48:32;;;;;;;1.45;0.70;;;22.00;28.40;;;;;;6212879;28;20038;-74
2023/01/02 08:51:33;;;;;;;13.73;2.20;;;22.10;28.60;;;;;;6215519;28;20026;-73
2023/01/02 08:54:34;;;;;;;18.35;2.08;;;22.00;29.30;;;;;;6236097;28;20175;-73
2023/01/02 08:57:35;;;;;;;12.20;2.28;;;21.80;30.70;;;;;;6240882;28;20358;-74
2023/01/02 09:00:36;;;;;;;9.15;1.83;;;21.40;32.90;;;;;;6234761;28;20116;-72
2023/01/02 09:03:37;;;;;;;12.85;2.28;;;20.90;34.60;;;;;;6238580;28;20133;-73
2023/01/02 09:06:39;;;;;;;12.02;1.95;;;20.40;36.10;;;;;;6200018;28;20034;-74
2023/01/02 09:09:40;;;;;;;8.75;1.88;;;20.00;36.70;;;;;;6211425;28;20034;-74
2023/01/02 09:12:41;;;;;;;6.20;1.45;;;19.60;37.10;;;;;;6211800;28;20505;-74
2023/01/02 09:15:45;;;;;;;15.32;2.20;;;19.40;37.90;;;;;;6208100;28;20418;-74
2023/01/02 09:18:46;;;;;;;5.65;1.67;;;19.20;38.20;;;;;;6212780;28;20129;-74
2023/01/02 09:21:47;;;;;;;11.05;2.15;;;19.10;39.30;;;;;;6210474;28;20121;-73
2023/01/02 09:24:48;;;;;;;15.02;2.17;;;18.90;39.80;;;;;;6196003;28;20868;-74
2023/01/02 09:27:49;;;;;;;14.48;1.92;;;18.90;40.00;;;;;;6216415;28;20454;-73
2023/01/02 09:30:50;;;;;;;6.15;1.63;;;18.70;40.00;;;;;;6212461;28;20022;-73
2023/01/02 09:33:53;;;;;;;9.55;1.70;;;18.70;40.10;;;;;;6230088;28;20036;-74
2023/01/02 09:36:54;;;;;;;9.75;1.70;;;18.70;40.70;;;;;;6223142;28;20064;-74
2023/01/02 09:39:55;;;;;;;9.60;2.00;;;18.60;40.60;;;;;;6238804;28;20048;-73
2023/01/02 09:42:58;;;;;;;6.35;1.65;;;18.50;40.80;;;;;;6214905;28;20056;-75
2023/01/02 09:46:00;;;;;;;12.88;2.05;;;18.50;41.60;;;;;;6225001;28;20627;-74
2023/01/02 09:49:02;;;;;;;7.82;2.17;;;18.40;41.90;;;;;;6227930;28;20052;-72
2023/01/02 09:52:05;;;;;;;19.48;2.00;;;18.40;42.20;;;;;;6238307;28;20072;-73
2023/01/02 09:55:22;;;;;;;6.43;1.75;;;18.30;42.60;;;;;;6240941;28;20049;-73
2023/01/02 09:58:37;;;;;;;8.90;1.55;;;18.30;43.00;;;;;;6234150;28;20044;-72
2023/01/02 10:02:05;;;;;;;20.48;2.92;;;18.10;43.40;;;;;;6245081;28;20539;-72
2023/01/02 10:05:27;;;;;;;8.30;1.95;;;18.10;43.40;;;;;;6242926;28;20045;-73
2023/01/02 10:08:43;;;;;;;6.85;1.70;;;18.10;43.80;;;;;;6242092;28;20889;-74
2023/01/02 10:12:10;;;;;;;10.27;1.92;;;18.10;43.90;;;;;;6214040;28;20044;-73
2023/01/02 10:15:18;;;;;;;7.35;1.50;;;18.10;44.20;;;;;;6238669;28;20053;-72
2023/01/02 10:18:25;;;;;;;;;;;18.10;44.70;;;;;;6241391;28;20049;-73
2023/01/02 10:21:30;;;;;;;7.57;2.00;;;18.10;44.90;;;;;;6242126;28;19913;-73
2023/01/02 10:24:54;;;;;;;9.65;1.70;;;18.10;44.90;;;;;;6235691;28;20038;-73
2023/01/02 10:28:14;;;;;;;19.75;2.42;;;18.10;45.00;;;;;;6240800;28;20057;-74
2023/01/02 10:31:34;;;;;;;6.93;1.80;;;18.10;45.10;;;;;;6217174;28;20455;-74
2023/01/02 10:34:52;;;;;;;6.82;1.73;;;18.10;45.20;;;;;;6204093;28;20030;-73
2023/01/02 10:37:55;;;;;;;6.68;2.10;;;18.10;45.40;;;;;;6240323;28;20455;-73
2023/01/02 10:40:55;;;;;;;9.38;1.48;;;18.10;45.20;;;;;;6242432;28;20450;-73
2023/01/02 10:44:10;;;;;;;11.32;2.33;;;18.20;45.00;;;;;;6240079;28;20193;-73
2023/01/02 10:47:23;;;;;;;6.25;1.77;;;18.20;45.20;;;;;;6239129;28;20102;-72
2023/01/02 10:50:31;;;;;;;13.50;2.38;;;18.30;45.20;;;;;;6240777;28;20396;-73
2023/01/02 10:53:36;;;;;;;;;;;18.40;45.20;;;;;;6247092;28;20080;-73
2023/01/02 10:56:39;;;;;;;12.30;2.03;;;18.50;45.10;;;;;;6242731;28;20325;-73
2023/01/02 10:59:43;;;;;;;11.60;2.08;;;18.60;44.90;;;;;;6243812;28;20038;-74
2023/01/02 11:02:58;;;;;;;5.25;1.95;;;18.60;44.90;;;;;;6242459;28;20118;-73
2023/01/02 11:06:00;;;;;;;9.98;2.30;;;18.60;44.90;;;;;;6241388;28;20045;-74
2023/01/02 11:09:17;;;;;;;11.55;1.75;;;18.60;44.90;;;;;;6244861;28;20379;-74
2023/01/02 11:12:18;;;;;;;12.38;2.10;;;18.60;45.10;;;;;;6220256;28;20120;-73
2023/01/02 11:15:26;;;;;;;16.08;2.22;;;18.60;45.40;;;;;;6238755;28;20072;-74
2023/01/02 11:18:30;;;;;;;7.07;2.10;;;18.50;45.50;;;;;;6222431;28;20092;-75
2023/01/02 11:21:33;;;;;;;4.97;2.28;;;18.50;45.70;;;;;;6236746;28;20042;-74
2023/01/02 11:24:44;;;;;;;13.25;1.92;;;18.50;45.80;;;;;;6235606;28;20056;-73
2023/01/02 11:27:45;;;;;;;10.73;1.73;;;18.40;45.70;;;;;;6239126;28;20839;-73
2023/01/02 11:30:51;;;;;;;6.32;1.92;;;18.40;45.80;;;;;;6238561;28;20037;-74
2023/01/02 11:34:07;;;;;;;8.82;1.92;;;18.40;45.90;;;;;;6233824;28;20040;-74
2023/01/02 11:37:11;;;;;;;10.85;2.28;;;18.30;45.80;;;;;;6237963;28;20579;-72
2023/01/02 11:40:32;;;;;;;5.70;1.70;;;18.30;45.80;;;;;;6217159;28;20125;-75
2023/01/02 11:43:48;;;;;;;8.07;1.67;;;18.30;46.00;;;;;;6220254;28;20055;-73
2023/01/02 11:46:52;;;;;;;9.80;1.85;;;18.20;46.10;;;;;;6238509;28;20029;-74
2023/01/02 11:49:53;;;;;;;3.90;1.70;;;18.20;46.10;;;;;;6241662;28;20049;-75
2023/01/02 11:53:02;;;;;;;8.80;2.20;;;18.20;46.80;;;;;;6241337;28;20029;-74
2023/01/02 11:56:04;;;;;;;8.30;1.85;;;18.20;46.20;;;;;;6241427;28;20050;-75
2023/01/02 11:59:17;;;;;;;9.10;2.13;;;18.20;46.10;;;;;;6239933;28;20107;-73
2023/01/02 12:02:28;;;;;;;12.30;2.03;;;18.30;46.10;;;;;;6236037;28;20485;-75
2023/01/02 12:05:56;;;;;;;5.00;1.55;;;18.30;46.20;;;;;;6240815;28;20378;-75
2023/01/02 12:08:57;;;;;;;11.02;3.08;;;18.20;46.10;;;;;;6223570;28;20029;-73
2023/01/02 12:12:00;;;;;;;9.15;2.30;;;18.30;46.20;;;;;;6233162;28;20040;-74
2023/01/02 12:15:23;;;;;;;10.55;3.03;;;18.20;46.30;;;;;;6213420;28;20083;-74
2023/01/02 12:19:07;;;;;;;13.32;1.90;;;18.30;46.20;;;;;;6235491;28;20102;-74
2023/01/02 12:22:24;;;;;;;7.78;2.13;;;18.20;46.30;;;;;;6218604;28;20041;-74
2023/01/02 12:25:40;;;;;;;6.70;2.03;;;18.20;46.40;;;;;;6239364;28;20040;-73
2023/01/02 12:28:50;;;;;;;12.52;2.65;;;18.30;46.50;;;;;;6238116;28;20030;-73
2023/01/02 12:32:20;;;;;;;9.63;2.20;;;18.30;46.60;;;;;;6222046;28;20047;-73
2023/01/02 12:35:45;;;;;;;5.38;1.88;;;18.20;46.70;;;;;;6231526;28;20044;-74
2023/01/02 12:39:31;;;;;;;18.17;2.22;;;18.30;46.70;;;;;;6236024;28;20092;-74
2023/01/02 12:42:58;;;;;;;7.93;1.70;;;18.30;46.80;;;;;;6237870;28;20030;-73
2023/01/02 12:46:21;;;;;;;5.82;1.80;;;18.30;47.00;;;;;;6232676;28;20041;-74
2023/01/02 12:49:43;;;;;;;9.88;1.98;;;18.30;47.10;;;;;;6236032;28;20034;-74
2023/01/02 12:53:10;;;;;;;13.90;1.58;;;18.30;47.20;;;;;;6237878;28;20366;-73
2023/01/02 12:56:24;;;;;;;6.30;2.42;;;18.30;47.20;;;;;;6234408;28;20505;-74
2023/01/02 12:59:42;;;;;;;9.82;2.78;;;18.30;47.20;;;;;;6239148;28;20040;-74
2023/01/02 13:03:05;;;;;;;10.95;2.05;;;18.30;47.20;;;;;;6216659;28;20419;-75
2023/01/02 13:06:37;;;;;;;7.57;1.77;;;18.30;47.20;;;;;;6237280;28;20026;-74
2023/01/02 13:09:43;;;;;;;11.40;2.00;;;18.40;47.20;;;;;;6184688;28;20066;-74
2023/01/02 13:12:46;;;;;;;5.55;1.95;;;18.40;47.00;;;;;;6170500;28;20050;-74
2023/01/02 13:15:50;;;;;;;13.52;1.83;;;18.40;46.90;;;;;;6185664;28;20054;-74
2023/01/02 13:19:20;;;;;;;15.48;2.80;;;18.50;46.80;;;;;;6169353;28;20061;-75
2023/01/02 13:22:45;;;;;;;17.33;3.08;;;18.50;46.70;;;;;;6170006;28;20085;-75
2023/01/02 13:25:51;;;;;;;10.48;2.13;;;18.60;46.60;;;;;;6165579;28;20026;-75
2023/01/02 13:29:08;;;;;;;4.63;2.10;;;18.60;46.60;;;;;;6171242;28;20034;-73
2023/01/02 13:32:11;;;;;;;9.25;1.80;;;18.60;46.60;;;;;;6190827;28;20103;-73
2023/01/02 13:35:12;;;;;;;8.38;2.30;;;18.50;46.60;;;;;;6178231;28;20034;-73
2023/01/02 13:38:15;;;;;;;12.20;2.40;;;18.60;46.60;;;;;;6177287;28;20049;-73
2023/01/02 13:41:18;;;;;;;14.65;1.75;;;18.60;46.50;;;;;;6178936;28;20801;-74
2023/01/02 13:44:31;;;;;;;7.03;1.60;;;18.60;46.40;;;;;;6178177;28;20042;-74
2023/01/02 13:47:36;;;;;;;9.30;1.73;;;18.70;46.50;;;;;;6233907;28;20034;-74
2023/01/02 13:50:38;;;;;;;15.93;3.33;;;18.70;46.40;;;;;;6225758;28;20040;-74
2023/01/02 13:53:41;;;;;;;11.27;2.35;;;18.70;46.30;;;;;;6207522;28;20037;-74
2023/01/02 13:57:30;;;;;;;7.35;1.92;;;18.70;46.20;;;;;;6230157;28;20474;-73
2023/01/02 14:00:39;;;;;;;9.55;2.10;;;18.70;46.20;;;;;;6231188;28;20180;-73
2023/01/02 14:03:40;;;;;;;14.05;2.58;;;18.70;46.10;;;;;;6239875;28;20354;-74
2023/01/02 14:06:43;;;;;;;10.02;2.38;;;18.70;46.20;;;;;;6233826;28;20053;-73
2023/01/02 14:10:05;;;;;;;16.77;5.63;;;18.70;46.30;;;;;;6235180;28;20412;-73
2023/01/02 14:13:09;;;;;;;11.48;2.95;;;18.70;46.30;;;;;;6237429;28;20120;-73
2023/01/02 14:16:10;;;;;;;18.17;4.60;;;18.70;46.30;;;;;;6247151;28;20057;-73
2023/01/02 14:19:11;;;;;;;8.10;1.83;;;18.70;46.10;;;;;;6216301;28;20030;-73
2023/01/02 14:22:15;;;;;;;34.25;8.38;;;18.70;46.00;;;;;;6201945;28;20069;-73
2023/01/02 14:25:17;;;;;;;17.58;5.15;;;18.70;46.00;;;;;;6201865;28;20045;-74
2023/01/02 14:28:27;;;;;;;8.60;1.95;;;18.70;45.90;;;;;;6216435;28;20034;-73
2023/01/02 14:31:33;;;;;;;17.13;3.38;;;18.70;45.80;;;;;;6215338;28;20452;-74
2023/01/02 14:34:45;;;;;;;4.70;2.20;;;18.80;45.70;;;;;;6218133;28;20034;-73
2023/01/02 14:37:50;;;;;;;5.20;1.95;;;18.80;45.60;;;;;;6219271;28;20107;-72
2023/01/02 14:40:51;;;;;;;9.02;2.80;;;18.90;45.50;;;;;;6219078;28;20044;-73
2023/01/02 14:43:52;;;;;;;3.80;1.65;;;18.90;45.40;;;;;;6218811;28;20045;-74
2023/01/02 14:46:54;;;;;;;11.75;2.20;;;18.90;45.30;;;;;;6223640;28;20057;-72
2023/01/02 14:49:59;;;;;;;11.68;2.10;;;18.90;45.10;;;;;;6239614;28;20344;-72
2023/01/02 14:53:15;;;;;;;9.75;2.67;;;18.90;44.80;;;;;;6241443;28;20134;-73
2023/01/02 14:56:20;;;;;;;6.13;2.55;;;18.80;44.70;;;;;;6222834;28;20348;-73
2023/01/02 14:59:30;;;;;;;9.90;3.90;;;18.80;44.80;;;;;;6227536;28;20037;-73
2023/01/02 15:02:38;;;;;;;9.38;2.58;;;18.80;44.70;;;;;;6249444;28;20077;-72
2023/01/02 15:05:47;;;;;;;8.85;2.33;;;18.90;44.70;;;;;;6248858;28;20041;-73
2023/01/02 15:08:51;;;;;;;4.50;1.88;;;18.90;44.50;;;;;;6248625;28;20060;-73
2023/01/02 15:15:16;;;;;;;6.65;2.53;;;18.90;44.40;;;;;;6240442;28;20056;-74
2023/01/02 15:18:32;;;;;;;9.32;3.30;;;18.80;44.40;;;;;;6221520;28;20045;-73
2023/01/02 15:21:39;;;;;;;11.60;2.17;;;18.90;44.40;;;;;;6221912;28;20034;-73
2023/01/02 15:24:52;;;;;;;15.50;3.80;;;18.90;44.30;;;;;;6242119;28;20036;-74
2023/01/02 15:27:53;;;;;;;13.68;3.28;;;18.90;44.20;;;;;;6225408;28;20037;-74
2023/01/02 15:31:11;;;;;;;11.82;2.45;;;18.90;44.10;;;;;;6227863;28;20102;-72
2023/01/02 15:34:12;;;;;;;8.10;2.20;;;18.80;44.10;;;;;;6216319;28;20103;-73
2023/01/02 15:37:13;;;;;;;4.97;1.83;;;18.80;44.00;;;;;;6213466;28;20041;-73
2023/01/02 15:40:33;;;;;;;12.63;1.90;;;18.70;43.90;;;;;;6218115;28;21714;-72
2023/01/02 15:46:58;;;;;;;6.22;2.33;;;18.70;43.70;;;;;;6244520;28;20042;-74
2023/01/02 15:50:20;;;;;;;11.18;1.98;;;18.70;43.60;;;;;;6245611;28;20037;-73
2023/01/02 15:53:33;;;;;;;12.07;2.88;;;18.60;43.60;;;;;;6240617;28;20037;-73
2023/01/02 15:56:36;;;;;;;11.23;2.67;;;18.60;43.70;;;;;;6240312;28;20041;-74
2023/01/02 15:59:38;;;;;;;18.02;3.00;;;18.60;43.80;;;;;;6222777;28;20029;-73
2023/01/02 16:02:41;;;;;;;7.55;2.58;;;18.50;43.80;;;;;;6240649;28;20033;-73
2023/01/02 16:05:53;;;;;;;11.65;3.00;;;18.60;43.80;;;;;;6241211;28;20079;-75
2023/01/02 16:08:57;;;;;;;10.82;2.72;;;18.60;43.90;;;;;;6241462;28;20037;-72
2023/01/02 16:12:01;;;;;;;21.17;3.78;;;18.70;44.00;;;;;;6238226;28;20541;-74
2023/01/02 16:15:03;;;;;;;14.95;3.35;;;18.70;44.00;;;;;;6241084;28;20121;-73
2023/01/02 16:18:04;;;;;;;7.00;3.00;;;18.60;44.10;;;;;;6243879;28;20049;-73